Time;durP1;ratioP1;P1;durP2;ratioP2;P2;SDS_P1;SDS_P2;PMS_P1;PMS_P2;Temp;Humidity;BMP_temperature;BMP_pressure;BME280_temperature;BME280_humidity;BME280_pressure;Samples;Min_cycle;Max_cycle;Signal;HPM_P1;HPM_P2
2022/02/10 00:03:31;;;;;;;19.50;9.23;;;2.80;47.70;;;;;;4987783;28;20179;-80
2022/02/10 00:22:46;;;;;;;32.42;13.43;;;2.50;48.40;;;;;;5055341;28;20112;-77
2022/02/10 00:36:23;;;;;;;30.55;14.07;;;2.30;49.00;;;;;;5053460;28;20060;-76
2022/02/10 00:42:04;;;;;;;25.48;11.23;;;2.30;49.20;;;;;;5066504;28;20063;-81
2022/02/10 00:44:30;;;;;;;19.73;9.07;;;2.30;49.10;;;;;;5038442;28;20045;-76
2022/02/10 00:46:56;;;;;;;17.00;6.90;;;2.20;49.00;;;;;;5037094;28;20520;-80
2022/02/10 00:49:22;;;;;;;14.60;7.38;;;2.20;49.10;;;;;;5055372;28;20059;-77
2022/02/10 00:51:49;;;;;;;15.45;6.60;;;2.10;49.30;;;;;;5053205;28;20080;-79
2022/02/10 00:57:09;;;;;;;20.55;9.27;;;1.90;49.20;;;;;;5044205;28;20044;-76
2022/02/10 01:30:28;;;;;;;21.60;9.07;;;1.80;50.10;;;;;;5052582;28;20044;-79
2022/02/10 01:32:58;;;;;;;20.42;9.15;;;1.70;49.90;;;;;;5053002;28;20186;-76
2022/02/10 01:35:30;;;;;;;19.30;8.27;;;1.70;49.80;;;;;;5052923;28;20055;-76
2022/02/10 01:37:56;;;;;;;24.50;9.43;;;1.70;50.10;;;;;;5035946;28;20117;-80
2022/02/10 02:05:18;;;;;;;13.15;5.95;;;1.40;50.40;;;;;;5059044;28;20114;-75
2022/02/10 02:07:44;;;;;;;17.55;6.20;;;1.40;50.50;;;;;;5036852;28;20061;-75
2022/02/10 02:10:10;;;;;;;14.85;5.07;;;1.40;50.70;;;;;;5035483;28;20033;-76
2022/02/10 02:12:36;;;;;;;12.73;4.97;;;1.30;51.50;;;;;;5034221;28;20421;-75
2022/02/10 02:15:03;;;;;;;13.23;5.32;;;1.30;50.80;;;;;;5051810;28;20051;-76
2022/02/10 02:17:29;;;;;;;14.20;5.15;;;1.20;50.30;;;;;;5052287;28;20033;-75
2022/02/10 02:20:00;;;;;;;16.05;6.25;;;1.30;51.00;;;;;;5053126;28;20041;-75
2022/02/10 02:22:50;;;;;;;9.43;4.88;;;1.20;51.70;;;;;;5052586;28;20094;-80
2022/02/10 02:25:31;;;;;;;13.60;6.00;;;1.30;51.10;;;;;;5045821;28;20057;-81
2022/02/10 02:27:58;;;;;;;11.75;5.43;;;1.30;51.20;;;;;;5051019;28;20044;-76
2022/02/10 02:30:39;;;;;;;12.05;4.97;;;1.30;51.10;;;;;;5068540;28;20025;-75
2022/02/10 02:35:54;;;;;;;11.43;5.30;;;1.20;51.20;;;;;;5052156;28;20079;-80
2022/02/10 02:38:57;;;;;;;14.57;6.13;;;1.20;51.30;;;;;;5052167;28;20044;-76
2022/02/10 03:06:26;;;;;;;22.98;8.40;;;0.80;51.40;;;;;;5051294;28;20137;-76
2022/02/10 03:08:58;;;;;;;17.60;7.65;;;0.80;51.40;;;;;;5052637;28;20037;-80
2022/02/10 03:11:25;;;;;;;17.25;7.15;;;0.80;51.40;;;;;;5051187;28;20041;-80
2022/02/10 03:17:01;;;;;;;22.13;8.13;;;0.80;51.40;;;;;;5067562;28;20040;-80
2022/02/10 03:22:31;;;;;;;15.80;7.43;;;0.60;51.60;;;;;;5051180;28;20056;-79
2022/02/10 04:11:51;;;;;;;17.88;7.15;;;0.30;52.30;;;;;;5050374;28;20037;-75
2022/02/10 04:14:28;;;;;;;15.00;5.97;;;0.30;52.20;;;;;;5035892;28;20053;-76
2022/02/10 04:20:10;;;;;;;12.02;6.30;;;0.10;52.20;;;;;;5048906;28;20044;-76
2022/02/10 04:58:55;;;;;;;16.95;7.60;;;0.00;52.20;;;;;;5050499;28;20136;-75
2022/02/10 05:21:11;;;;;;;17.50;7.93;;;-0.10;53.20;;;;;;5068074;28;20040;-80
2022/02/10 05:32:25;;;;;;;12.48;6.00;;;-0.20;53.40;;;;;;5051470;28;20110;-75
2022/02/10 05:34:58;;;;;;;13.02;5.32;;;-0.30;53.40;;;;;;5065167;28;20394;-81
2022/02/10 05:37:29;;;;;;;12.15;5.28;;;-0.40;53.20;;;;;;5054693;28;20037;-75
2022/02/10 05:40:09;;;;;;;20.00;6.30;;;-0.40;53.30;;;;;;5068642;28;20056;-81
2022/02/10 05:56:32;;;;;;;11.30;5.22;;;-0.40;53.40;;;;;;5051838;28;20033;-80
2022/02/10 07:13:56;;;;;;;23.33;10.93;;;-0.10;53.30;;;;;;5048969;28;20040;-80
2022/02/10 07:56:20;;;;;;;253.77;99.10;;;1.50;53.50;;;;;;5033693;28;20031;-76
2022/02/10 08:59:32;;;;;;;37.85;20.05;;;14.30;37.70;;;;;;5055105;28;20045;-83
2022/02/10 09:04:55;;;;;;;37.50;19.98;;;16.80;34.70;;;;;;5050536;28;20040;-83
2022/02/10 09:11:02;;;;;;;36.15;21.75;;;18.80;31.90;;;;;;5054981;28;20039;-78
2022/02/10 09:13:42;;;;;;;33.97;20.98;;;19.60;30.80;;;;;;5054445;28;20699;-79
2022/02/10 09:22:10;;;;;;;40.92;24.48;;;22.40;28.00;;;;;;5054070;28;20091;-80
2022/02/10 09:57:31;;;;;;;26.92;14.88;;;19.80;27.10;;;;;;5054543;28;20022;-84
2022/02/10 10:00:15;;;;;;;23.35;14.10;;;19.70;27.00;;;;;;5039576;28;20049;-84
2022/02/10 10:47:28;;;;;;;30.67;16.40;;;20.30;23.60;;;;;;5052362;28;20178;-79
2022/02/10 10:51:55;;;;;;;26.80;12.68;;;19.40;24.00;;;;;;5052509;28;20048;-79
2022/02/10 10:54:36;;;;;;;23.90;13.25;;;18.70;24.80;;;;;;5053019;28;20397;-79
2022/02/10 10:57:13;;;;;;;21.63;12.15;;;18.50;25.40;;;;;;5052660;28;20033;-79
2022/02/10 11:06:58;;;;;;;110.63;19.85;;;23.00;20.70;;;;;;5052481;28;20086;-79
2022/02/10 11:38:39;;;;;;;23.02;7.53;;;21.80;21.10;;;;;;5033390;28;20099;-84
2022/02/10 12:31:29;;;;;;;12.63;6.43;;;20.60;23.00;;;;;;5052146;28;20113;-82
2022/02/10 14:14:22;;;;;;;10.18;4.55;;;29.30;16.10;;;;;;5067776;28;20124;-77
2022/02/10 14:19:19;;;;;;;9.55;3.88;;;29.00;16.60;;;;;;5052672;28;20051;-77
2022/02/10 14:21:59;;;;;;;11.25;3.60;;;28.40;17.00;;;;;;5054363;28;20033;-77
2022/02/10 14:27:10;;;;;;;7.25;3.30;;;27.90;16.40;;;;;;5052998;28;20083;-81
2022/02/10 14:29:40;;;;;;;12.10;3.42;;;27.40;17.50;;;;;;5054319;28;20087;-80
2022/02/10 14:32:31;;;;;;;6.57;2.60;;;25.30;19.50;;;;;;5052787;28;20025;-82
2022/02/10 14:35:16;;;;;;;6.82;2.65;;;24.60;20.40;;;;;;5052221;28;20056;-77
2022/02/10 15:11:31;;;;;;;6.63;2.00;;;21.30;25.50;;;;;;5052408;28;20047;-82
2022/02/10 15:28:50;;;;;;;6.38;2.88;;;18.10;28.70;;;;;;5052194;28;20212;-82
2022/02/10 15:54:58;;;;;;;6.30;1.98;;;14.70;34.60;;;;;;5037648;28;20430;-77
2022/02/10 16:17:26;;;;;;;11.32;3.38;;;13.40;36.70;;;;;;5051821;28;20064;-76
2022/02/10 16:19:54;;;;;;;12.43;4.18;;;13.30;36.70;;;;;;5050472;28;20040;-77
2022/02/10 16:22:27;;;;;;;15.48;6.88;;;13.30;36.70;;;;;;5035071;28;20032;-76
2022/02/10 16:25:03;;;;;;;36.78;16.25;;;13.20;36.50;;;;;;5034863;28;20040;-76
2022/02/10 16:27:37;;;;;;;36.13;17.80;;;13.10;36.50;;;;;;5051839;28;20128;-81
2022/02/10 16:30:13;;;;;;;15.90;8.90;;;13.00;37.00;;;;;;5050714;28;20454;-76
2022/02/10 16:32:40;;;;;;;14.90;8.17;;;12.90;37.10;;;;;;5053037;28;20033;-76
2022/02/10 16:35:09;;;;;;;14.48;7.70;;;12.80;37.20;;;;;;5033484;28;20461;-76
2022/02/10 16:37:37;;;;;;;22.58;15.70;;;12.70;37.50;;;;;;5035061;28;20033;-76
2022/02/10 16:40:12;;;;;;;20.98;14.80;;;12.60;37.20;;;;;;5052285;28;20048;-81
2022/02/10 16:42:38;;;;;;;49.00;30.20;;;12.50;37.90;;;;;;5035248;28;20045;-81
2022/02/10 16:45:05;;;;;;;17.83;11.00;;;12.40;38.00;;;;;;5051114;28;20429;-75
2022/02/10 16:47:32;;;;;;;18.88;7.68;;;12.30;38.40;;;;;;5034449;28;20128;-80
2022/02/10 16:50:00;;;;;;;15.25;7.07;;;12.20;39.40;;;;;;5050424;28;20043;-75
2022/02/10 17:17:29;;;;;;;66.65;24.02;;;11.10;42.80;;;;;;5054687;28;20040;-81
2022/02/10 17:20:24;;;;;;;54.30;23.90;;;11.00;42.40;;;;;;5054779;28;20044;-81
2022/02/10 17:25:49;;;;;;;20.77;13.20;;;11.00;42.20;;;;;;5027249;28;20036;-80
2022/02/10 17:28:23;;;;;;;66.90;24.67;;;10.90;42.60;;;;;;5038328;28;20045;-76
2022/02/10 17:31:08;;;;;;;32.60;11.77;;;10.80;43.20;;;;;;5053882;28;20398;-80
2022/02/10 17:33:50;;;;;;;21.27;9.63;;;10.60;43.60;;;;;;5040157;28;20044;-80
2022/02/10 17:37:02;;;;;;;20.30;9.48;;;10.50;44.80;;;;;;5053280;28;20390;-75
2022/02/10 17:53:27;;;;;;;28.10;10.15;;;10.00;46.40;;;;;;5054262;28;20039;-80
2022/02/10 17:55:57;;;;;;;24.35;8.65;;;9.90;46.30;;;;;;5053630;28;20049;-81
2022/02/10 17:58:23;;;;;;;19.90;9.00;;;9.90;45.90;;;;;;5036963;28;20044;-81
2022/02/10 18:00:52;;;;;;;16.30;6.35;;;9.90;46.30;;;;;;5053199;28;20429;-75
2022/02/10 18:03:20;;;;;;;12.60;5.47;;;9.80;46.10;;;;;;5053837;28;20038;-75
2022/02/10 18:08:34;;;;;;;16.73;7.28;;;9.80;45.90;;;;;;5054981;28;20040;-80
2022/02/10 18:14:03;;;;;;;20.73;7.80;;;9.70;45.70;;;;;;5053379;28;20044;-77
2022/02/10 18:16:36;;;;;;;42.35;13.65;;;9.70;46.10;;;;;;5053540;28;20059;-77
2022/02/10 18:19:19;;;;;;;60.95;21.65;;;9.60;46.20;;;;;;5053418;28;20095;-83
2022/02/10 19:05:54;;;;;;;56.40;28.98;;;8.10;47.40;;;;;;5038870;28;20614;-82
2022/02/10 19:08:25;;;;;;;36.33;21.10;;;8.00;47.10;;;;;;5040819;28;20418;-84
2022/02/10 19:10:59;;;;;;;25.30;14.90;;;7.90;47.10;;;;;;5045307;28;20068;-78
2022/02/10 19:13:28;;;;;;;30.00;15.23;;;7.90;46.70;;;;;;5033674;28;20044;-83
2022/02/10 19:15:55;;;;;;;26.25;13.73;;;7.90;47.30;;;;;;5043459;28;20041;-83
2022/02/10 19:18:23;;;;;;;26.98;14.38;;;7.80;47.20;;;;;;4995037;28;20038;-83
2022/02/10 19:20:53;;;;;;;30.50;16.08;;;7.80;47.40;;;;;;5010761;28;20073;-83
2022/02/10 19:23:19;;;;;;;27.85;14.68;;;7.70;47.40;;;;;;4993573;28;20054;-82
2022/02/10 19:25:50;;;;;;;26.38;15.50;;;7.70;47.50;;;;;;5010738;28;20041;-78
2022/02/10 19:28:17;;;;;;;28.38;15.45;;;7.50;47.40;;;;;;5011709;28;20046;-82
2022/02/10 19:30:45;;;;;;;34.80;15.95;;;7.40;47.60;;;;;;4975067;28;20077;-77
2022/02/10 19:33:20;;;;;;;29.08;13.75;;;7.40;47.80;;;;;;4991219;28;20462;-83
2022/02/10 19:35:49;;;;;;;25.52;12.40;;;7.20;47.90;;;;;;4977446;28;20065;-78
2022/02/10 19:38:23;;;;;;;42.45;20.38;;;7.10;48.30;;;;;;4976094;28;20049;-83
2022/02/10 19:40:53;;;;;;;29.75;19.13;;;6.90;48.70;;;;;;4994186;28;20042;-83
2022/02/10 19:43:21;;;;;;;28.25;16.88;;;6.80;48.80;;;;;;4978672;28;20045;-81
2022/02/10 19:45:48;;;;;;;22.58;13.93;;;6.80;49.20;;;;;;4994473;28;20052;-82
2022/02/10 19:48:15;;;;;;;25.40;14.13;;;6.70;49.60;;;;;;4980331;28;20034;-82
2022/02/10 19:50:43;;;;;;;28.48;14.15;;;6.70;49.50;;;;;;5051508;28;20029;-78
2022/02/10 19:53:13;;;;;;;24.52;13.68;;;6.60;48.90;;;;;;5051019;28;20047;-83
2022/02/10 19:55:49;;;;;;;24.75;11.73;;;6.70;49.30;;;;;;5035232;28;20032;-79
2022/02/10 19:58:21;;;;;;;24.70;13.98;;;6.60;49.30;;;;;;5035947;28;20041;-79
2022/02/10 20:00:55;;;;;;;20.17;10.85;;;6.60;49.50;;;;;;5035380;28;20102;-82
2022/02/10 20:03:25;;;;;;;24.13;13.30;;;6.50;49.40;;;;;;5051827;28;20041;-78
2022/02/10 20:06:03;;;;;;;26.73;14.82;;;6.40;49.40;;;;;;5050928;28;20086;-77
2022/02/10 20:08:29;;;;;;;32.85;19.58;;;6.30;49.10;;;;;;5034295;28;20041;-82
2022/02/10 20:10:59;;;;;;;34.92;20.08;;;6.30;49.80;;;;;;5034791;28;20040;-78
2022/02/10 20:13:52;;;;;;;25.85;15.13;;;6.20;49.90;;;;;;5051655;28;20040;-77
2022/02/10 20:16:18;;;;;;;34.15;17.65;;;6.20;50.40;;;;;;5051186;28;20041;-78
2022/02/10 20:18:48;;;;;;;34.55;17.35;;;6.20;50.00;;;;;;5051438;28;20029;-83
2022/02/10 20:21:15;;;;;;;28.45;15.73;;;6.10;50.10;;;;;;5051070;28;20045;-77
2022/02/10 20:23:43;;;;;;;26.38;15.00;;;6.10;50.20;;;;;;5034155;28;20086;-83
2022/02/10 20:26:12;;;;;;;209.55;77.45;;;6.10;50.20;;;;;;5034373;28;20033;-83
2022/02/10 20:28:39;;;;;;;38.55;19.10;;;6.00;50.40;;;;;;5051838;28;20524;-83
2022/02/10 20:31:08;;;;;;;32.10;18.88;;;6.00;50.50;;;;;;5051210;28;20060;-78
2022/02/10 20:33:40;;;;;;;55.42;28.55;;;6.00;50.70;;;;;;5051695;28;20036;-83
2022/02/10 20:36:08;;;;;;;54.05;26.95;;;5.90;51.00;;;;;;5038535;28;20033;-83
2022/02/10 20:41:32;;;;;;;26.73;13.98;;;5.80;51.00;;;;;;5054960;28;20063;-77
2022/02/10 20:44:01;;;;;;;30.75;14.00;;;5.80;51.10;;;;;;5055542;28;20029;-83
2022/02/10 20:46:32;;;;;;;19.48;10.85;;;5.70;51.20;;;;;;5055095;28;20486;-78
2022/02/10 20:49:02;;;;;;;56.53;29.58;;;5.70;51.30;;;;;;5056424;28;20501;-83
2022/02/10 20:51:29;;;;;;;37.47;18.30;;;5.60;50.90;;;;;;5018900;28;20037;-78
2022/02/10 20:54:16;;;;;;;24.95;12.38;;;5.50;51.00;;;;;;5036465;28;20048;-77
2022/02/10 20:56:45;;;;;;;27.48;12.77;;;5.40;51.10;;;;;;5022232;28;20052;-77
2022/02/10 21:01:59;;;;;;;19.27;9.55;;;5.30;51.50;;;;;;5054919;28;20371;-83
2022/02/10 21:04:32;;;;;;;19.85;9.20;;;5.30;51.70;;;;;;5040283;28;20392;-78
2022/02/10 21:09:57;;;;;;;17.20;9.57;;;5.30;51.70;;;;;;5055236;28;20390;-79
2022/02/10 21:12:28;;;;;;;21.33;10.70;;;5.20;51.70;;;;;;5054679;28;20392;-77
2022/02/10 21:15:26;;;;;;;21.73;11.38;;;5.20;51.60;;;;;;5054768;28;20127;-83
2022/02/10 21:18:11;;;;;;;18.13;10.13;;;5.10;52.10;;;;;;5054602;28;20044;-77
2022/02/10 21:20:39;;;;;;;33.97;13.23;;;5.10;51.80;;;;;;5037752;28;20041;-83
2022/02/10 21:26:12;;;;;;;26.38;13.40;;;5.00;52.20;;;;;;5055490;28;20033;-83
2022/02/10 21:28:40;;;;;;;35.45;19.67;;;5.00;52.20;;;;;;5025984;28;20074;-75
2022/02/10 21:31:21;;;;;;;27.90;13.38;;;4.90;52.20;;;;;;5054258;28;20078;-82
2022/02/10 21:37:09;;;;;;;28.10;13.85;;;4.80;52.50;;;;;;5054271;28;20041;-83
2022/02/10 21:39:33;;;;;;;21.92;12.00;;;4.80;52.40;;;;;;5053904;28;20037;-77
2022/02/10 21:47:45;;;;;;;30.67;16.50;;;4.70;53.00;;;;;;5053775;28;20044;-77
2022/02/10 22:02:32;;;;;;;31.63;14.02;;;4.50;53.50;;;;;;5053726;28;20140;-83
2022/02/10 22:18:48;;;;;;;49.50;22.38;;;4.20;54.40;;;;;;5051998;28;20048;-77
2022/02/10 22:21:29;;;;;;;22.23;11.60;;;4.20;54.30;;;;;;4953154;29;20496;-83
2022/02/10 22:23:55;;;;;;;23.77;11.18;;;4.20;54.40;;;;;;4920158;29;20449;-82
2022/02/10 22:34:40;;;;;;;96.68;30.52;;;4.10;54.60;;;;;;4953193;29;20182;-78
2022/02/10 22:37:11;;;;;;;38.50;16.02;;;4.10;55.20;;;;;;4954190;29;20089;-78
2022/02/10 22:39:46;;;;;;;58.47;20.88;;;4.10;55.20;;;;;;4936774;29;20122;-84
2022/02/10 22:42:22;;;;;;;50.17;19.02;;;4.10;55.00;;;;;;4922601;29;20058;-84
2022/02/10 22:45:00;;;;;;;46.58;20.05;;;4.20;55.00;;;;;;4953869;29;20047;-79
2022/02/10 22:47:38;;;;;;;50.67;23.15;;;4.20;54.90;;;;;;4937582;29;20409;-79
2022/02/10 22:50:38;;;;;;;36.42;15.65;;;4.20;55.20;;;;;;4941871;29;20138;-82
2022/02/10 22:53:05;;;;;;;29.70;14.15;;;4.20;55.10;;;;;;4936376;29;20059;-79
2022/02/10 22:55:39;;;;;;;30.70;13.88;;;4.20;55.40;;;;;;5027481;28;20121;-79
2022/02/10 22:58:08;;;;;;;27.75;16.15;;;4.10;55.30;;;;;;5042430;28;20057;-78
2022/02/10 23:03:33;;;;;;;23.85;11.88;;;4.20;55.60;;;;;;5052815;28;20069;-78
2022/02/10 23:06:09;;;;;;;74.18;32.20;;;4.20;55.40;;;;;;5026399;28;20501;-78
2022/02/10 23:08:38;;;;;;;85.10;36.75;;;4.20;55.30;;;;;;5034605;28;20052;-79
2022/02/10 23:11:04;;;;;;;41.47;20.45;;;4.20;55.20;;;;;;5046282;28;20043;-79
2022/02/10 23:13:34;;;;;;;35.53;17.00;;;4.30;55.30;;;;;;5042949;28;20135;-84
2022/02/10 23:16:07;;;;;;;26.65;13.63;;;4.30;55.10;;;;;;5031624;28;20033;-80
2022/02/10 23:18:41;;;;;;;36.72;16.67;;;4.30;54.90;;;;;;5046713;28;20135;-83
2022/02/10 23:21:13;;;;;;;47.67;21.25;;;4.30;55.00;;;;;;5034717;28;20083;-83
2022/02/10 23:23:43;;;;;;;22.63;10.00;;;4.30;55.00;;;;;;5033932;28;20025;-78
2022/02/10 23:26:21;;;;;;;25.92;10.90;;;4.40;54.90;;;;;;5052163;28;20067;-84
2022/02/10 23:28:54;;;;;;;30.63;12.57;;;4.40;54.90;;;;;;5052204;28;20061;-84
2022/02/10 23:31:30;;;;;;;25.45;10.05;;;4.40;55.00;;;;;;5049816;28;20437;-80
2022/02/10 23:34:02;;;;;;;26.20;13.47;;;4.40;55.10;;;;;;5052437;28;20462;-84
2022/02/10 23:39:12;;;;;;;17.40;7.88;;;4.40;55.20;;;;;;5052212;28;20123;-84
2022/02/10 23:42:04;;;;;;;18.55;8.65;;;4.40;55.20;;;;;;5052013;28;20072;-84
2022/02/10 23:45:18;;;;;;;24.00;12.25;;;4.40;55.20;;;;;;5052344;28;20124;-79
2022/02/10 23:47:54;;;;;;;21.35;10.07;;;4.30;55.60;;;;;;5025813;28;20048;-84
2022/02/10 23:50:36;;;;;;;18.40;9.68;;;4.30;55.60;;;;;;5051806;28;20033;-85
2022/02/10 23:53:03;;;;;;;19.90;9.63;;;4.30;55.60;;;;;;5053231;28;20370;-79
2022/02/10 23:55:48;;;;;;;19.50;10.65;;;4.30;55.70;;;;;;5050721;28;20136;-85
